Time;durP1;ratioP1;P1;durP2;ratioP2;P2;SDS_P1;SDS_P2;PMS_P1;PMS_P2;Temp;Humidity;BMP_temperature;BMP_pressure;BME280_temperature;BME280_humidity;BME280_pressure;Samples;Min_cycle;Max_cycle;Signal;HPM_P1;HPM_P2
2022/09/21 00:03:13;;;;;;;10.75;5.13;;;;;;;4.99;100.00;102379.66;13037501;22;20306;-87
2022/09/21 00:08:14;;;;;;;12.23;5.10;;;;;;;6.60;100.00;102651.31;13001729;22;20007;-89
2022/09/21 00:13:16;;;;;;;15.57;6.43;;;;;;;5.41;100.00;102441.16;13036053;22;20018;-87
2022/09/21 00:18:17;;;;;;;10.93;6.05;;;;;;;6.00;100.00;102543.59;13038336;22;21873;-90
2022/09/21 00:23:19;;;;;;;11.38;6.30;;;;;;;5.28;100.00;102430.00;13012260;22;20060;-90
2022/09/21 00:28:20;;;;;;;11.98;7.65;;;;;;;6.62;100.00;102639.13;13010157;22;20018;-90
2022/09/21 00:33:20;;;;;;;11.57;6.55;;;;;;;5.95;100.00;102551.47;13012219;22;20037;-90
2022/09/21 00:38:21;;;;;;;13.15;6.43;;;;;;;5.87;100.00;102522.31;13036843;22;20003;-90
2022/09/21 00:43:22;;;;;;;15.88;7.57;;;;;;;4.55;100.00;102325.72;13026520;22;20439;-87
2022/09/21 00:48:22;;;;;;;13.07;7.25;;;;;;;5.05;100.00;102408.97;13037359;22;19999;-87
2022/09/21 00:53:23;;;;;;;10.38;6.68;;;;;;;5.85;100.00;102551.69;13034736;22;20011;-90
2022/09/21 00:58:35;;;;;;;17.65;6.55;;;;;;;6.51;100.00;102628.66;13009308;22;20014;-90
2022/09/21 01:03:36;;;;;;;18.45;8.60;;;;;;;5.71;100.00;102545.13;13036105;22;20148;-87
2022/09/21 01:08:37;;;;;;;14.77;6.47;;;;;;;4.92;100.00;102403.28;12995288;22;20433;-90
2022/09/21 01:13:56;;;;;;;11.27;7.25;;;;;;;5.71;100.00;102534.19;13035093;22;20085;-87
2022/09/21 01:19:15;;;;;;;13.05;6.55;;;;;;;5.93;100.00;102558.97;13061259;22;20014;-90
2022/09/21 01:24:37;;;;;;;18.10;7.15;;;;;;;5.42;100.00;102480.25;13036781;22;20006;-89
2022/09/21 01:29:57;;;;;;;17.20;7.60;;;;;;;6.30;100.00;102626.56;13061303;22;20051;-86
2022/09/21 01:35:05;;;;;;;14.25;7.13;;;;;;;4.84;100.00;102390.50;13000891;22;20084;-89
2022/09/21 01:40:15;;;;;;;22.20;7.43;;;;;;;4.55;100.00;102357.59;12974977;22;20086;-88
2022/09/21 01:45:18;;;;;;;15.88;7.75;;;;;;;5.21;100.00;102473.56;12973997;22;20011;-89
2022/09/21 01:50:19;;;;;;;11.52;6.68;;;;;;;5.67;100.00;102571.13;12974677;22;20018;-89
2022/09/21 01:55:27;;;;;;;8.13;5.85;;;;;;;5.06;100.00;102480.78;12958359;22;20438;-86
2022/09/21 02:00:28;;;;;;;11.18;6.70;;;;;;;5.36;100.00;102546.53;12973493;22;20011;-87
2022/09/21 02:05:29;;;;;;;12.82;7.05;;;;;;;4.79;100.00;102452.09;12948759;22;20031;-86
2022/09/21 02:10:39;;;;;;;9.48;5.63;;;;;;;4.52;100.00;102391.50;12950769;22;20006;-89
2022/09/21 02:15:58;;;;;;;11.57;6.22;;;;;;;6.11;100.00;102632.53;13001379;22;20015;-89
2022/09/21 02:20:59;;;;;;;10.50;6.47;;;;;;;4.52;100.00;102372.41;13027688;22;20000;-90
2022/09/21 02:26:12;;;;;;;10.07;6.40;;;;;;;4.49;100.00;102386.44;12951443;22;20019;-90
2022/09/21 02:31:22;;;;;;;15.73;8.10;;;;;;;6.14;100.00;102640.34;12962869;22;20015;-88
2022/09/21 02:36:52;;;;;;;15.40;7.53;;;;;;;6.08;100.00;102631.03;13013311;22;20460;-90
2022/09/21 02:42:06;;;;;;;11.10;6.57;;;;;;;6.02;100.00;102639.94;12963070;22;20066;-86
2022/09/21 02:47:08;;;;;;;12.77;6.50;;;;;;;4.30;100.00;102419.53;12984642;22;20031;-87
2022/09/21 02:52:13;;;;;;;13.02;7.38;;;;;;;4.21;100.00;102405.94;12975825;22;20022;-87
2022/09/21 02:57:15;;;;;;;13.55;6.35;;;;;;;3.89;100.00;102354.25;12975383;22;20425;-89
2022/09/21 03:02:16;;;;;;;12.30;6.30;;;;;;;4.33;100.00;102413.75;12950857;22;20003;-89
2022/09/21 03:07:16;;;;;;;16.92;6.80;;;;;;;4.42;100.00;102443.56;12975312;22;20007;-89
2022/09/21 03:12:17;;;;;;;15.50;6.32;;;;;;;3.62;100.00;102315.50;12951052;22;20022;-89
2022/09/21 03:17:18;;;;;;;12.95;6.50;;;;;;;5.11;100.00;102573.09;12950445;22;20011;-87
2022/09/21 03:22:20;;;;;;;12.57;6.75;;;;;;;4.58;100.00;102510.81;12974853;22;20003;-87
2022/09/21 03:27:21;;;;;;;12.70;6.90;;;;;;;3.58;100.00;102339.47;12974306;22;20333;-89
2022/09/21 03:32:21;;;;;;;13.10;6.40;;;;;;;3.90;100.00;102399.53;12964120;22;20026;-88
2022/09/21 03:37:22;;;;;;;14.00;6.75;;;;;;;4.07;100.00;102430.31;13012996;22;20452;-89
2022/09/21 03:42:23;;;;;;;11.65;6.25;;;;;;;4.76;100.00;102588.91;13014652;22;19999;-86
2022/09/21 03:47:24;;;;;;;11.45;6.93;;;;;;;3.77;100.00;102395.47;13037527;22;20485;-86
2022/09/21 03:52:24;;;;;;;13.98;6.65;;;;;;;4.43;100.00;102512.56;13014852;22;20037;-86
2022/09/21 03:57:25;;;;;;;12.88;6.30;;;;;;;5.33;100.00;102681.53;13038465;22;20026;-86
2022/09/21 04:02:26;;;;;;;15.27;6.88;;;;;;;3.75;100.00;102394.78;13035325;22;20520;-89
2022/09/21 04:07:30;;;;;;;11.95;6.95;;;;;;;4.43;100.00;102521.59;13036416;22;20003;-89
2022/09/21 04:12:33;;;;;;;12.82;7.20;;;;;;;3.86;100.00;102400.91;13036270;22;20090;-89
2022/09/21 04:17:33;;;;;;;15.50;7.07;;;;;;;4.81;100.00;102630.97;13038763;22;20416;-86
2022/09/21 04:22:35;;;;;;;13.65;7.72;;;;;;;3.72;100.00;102456.91;13064876;22;20003;-89
2022/09/21 04:27:36;;;;;;;15.43;7.07;;;;;;;4.63;100.00;102567.56;12982527;22;20385;-87
2022/09/21 04:32:36;;;;;;;13.60;7.00;;;;;;;4.79;100.00;102583.06;13004781;22;20049;-89
2022/09/21 04:37:37;;;;;;;14.52;7.45;;;;;;;4.54;100.00;102580.38;13009874;22;20424;-89
2022/09/21 04:42:37;;;;;;;16.58;7.25;;;;;;;3.73;100.00;102432.25;13035234;22;20414;-89
2022/09/21 04:47:38;;;;;;;17.05;7.90;;;;;;;2.98;100.00;102326.22;13010549;22;20356;-88
2022/09/21 04:52:39;;;;;;;15.77;7.03;;;;;;;4.23;100.00;102518.38;13037942;22;20030;-86
2022/09/21 04:57:39;;;;;;;11.48;6.35;;;;;;;4.30;100.00;102547.69;13012716;22;20003;-86
2022/09/21 05:02:40;;;;;;;15.98;7.40;;;;;;;3.40;100.00;102396.84;13012808;22;20022;-86
2022/09/21 05:07:40;;;;;;;11.85;5.80;;;;;;;3.07;100.00;102365.16;13009256;22;20011;-89
2022/09/21 05:12:42;;;;;;;11.00;6.60;;;;;;;4.65;100.00;102641.91;13038223;22;20369;-86
2022/09/21 05:17:43;;;;;;;9.40;6.10;;;;;;;2.93;100.00;102383.84;13010928;22;20388;-89
2022/09/21 05:22:43;;;;;;;13.68;6.88;;;;;;;3.37;100.00;102467.97;12998061;22;20092;-89
2022/09/21 05:27:44;;;;;;;11.65;6.25;;;;;;;4.07;100.00;102604.75;13011764;22;20034;-87
2022/09/21 05:32:47;;;;;;;12.93;6.75;;;;;;;3.80;100.00;102508.69;13035426;22;20018;-89
2022/09/21 05:37:51;;;;;;;13.32;6.50;;;;;;;4.94;100.00;102685.06;13036065;22;20017;-89
2022/09/21 05:42:52;;;;;;;19.35;8.43;;;;;;;4.19;100.00;102596.06;13061339;22;20014;-88
2022/09/21 05:47:58;;;;;;;10.13;6.75;;;;;;;4.98;100.00;102682.81;13029977;22;20018;-87
2022/09/21 05:53:17;;;;;;;18.40;7.45;;;;;;;5.03;100.00;102689.47;13041136;22;20031;-85
2022/09/21 05:58:24;;;;;;;13.30;6.85;;;;;;;5.10;100.00;102696.97;13065084;22;20078;-86
2022/09/21 06:03:28;;;;;;;;;;;;;;;5.16;100.00;102699.00;13052646;22;20407;-89
2022/09/21 06:08:28;;;;;;;12.50;7.28;;;;;;;3.78;100.00;102484.34;13042406;22;19899;-89
2022/09/21 06:13:29;;;;;;;15.70;8.13;;;;;;;3.49;100.00;102432.22;13021261;22;20044;-89
2022/09/21 06:18:29;;;;;;;16.90;8.10;;;;;;;3.80;100.00;102427.81;13003911;22;20023;-86
2022/09/21 06:23:30;;;;;;;15.85;9.85;;;;;;;3.94;100.00;102388.09;13042658;22;20185;-86
2022/09/21 06:28:31;;;;;;;12.32;7.78;;;;;;;5.12;100.00;102495.63;13042060;22;20073;-87
2022/09/21 06:33:31;;;;;;;18.58;12.27;;;;;;;5.35;100.00;102491.03;13042040;22;20440;-89
2022/09/21 06:38:34;;;;;;;17.30;10.48;;;;;;;6.23;100.00;102593.63;13014396;22;19999;-89
2022/09/21 06:43:34;;;;;;;13.88;7.70;;;;;;;5.99;100.00;102544.59;13014524;22;20007;-89
2022/09/21 06:48:35;;;;;;;9.13;5.57;;;;;;;7.37;100.00;102735.97;13038421;22;19999;-89
2022/09/21 06:53:35;;;;;;;8.45;4.68;;;;;;;6.60;100.00;102572.78;13015358;22;20022;-86
2022/09/21 06:58:36;;;;;;;9.90;4.90;;;;;;;6.11;100.00;102474.78;13017181;22;20029;-87
2022/09/21 07:03:37;;;;;;;8.95;4.18;;;;;;;7.17;100.00;102636.19;13028122;22;20027;-87
2022/09/21 07:08:38;;;;;;;9.77;5.25;;;;;;;7.38;100.00;102622.59;13041629;22;20013;-88
2022/09/21 07:13:40;;;;;;;13.82;6.20;;;;;;;6.16;100.00;102367.56;13025642;22;20076;-87
2022/09/21 07:18:41;;;;;;;12.27;6.25;;;;;;;6.63;100.00;102427.34;13001513;22;20302;-87
2022/09/21 07:23:41;;;;;;;13.02;5.78;;;;;;;6.82;100.00;102458.78;13039192;22;20011;-87
2022/09/21 07:28:42;;;;;;;12.02;5.53;;;;;;;7.30;100.00;102491.19;13001816;22;20010;-87
2022/09/21 07:33:45;;;;;;;13.23;6.63;;;;;;;7.55;100.00;102504.53;12897574;22;20445;-90
2022/09/21 07:38:48;;;;;;;18.50;5.68;;;;;;;7.86;100.00;102562.63;12983976;22;20072;-89
2022/09/21 07:43:49;;;;;;;12.93;5.88;;;;;;;7.84;100.00;102504.41;13040508;22;20133;-87
2022/09/21 07:48:52;;;;;;;18.13;6.82;;;;;;;8.42;100.00;102600.34;13064539;22;20003;-86
2022/09/21 07:53:57;;;;;;;13.73;7.05;;;;;;;8.80;100.00;102643.94;13012845;22;20030;-86
2022/09/21 07:59:06;;;;;;;14.15;6.45;;;;;;;9.03;100.00;102634.59;13015043;22;20481;-86
2022/09/21 08:04:08;;;;;;;17.67;6.50;;;;;;;9.26;100.00;102645.31;13005350;22;20087;-89
2022/09/21 08:09:08;;;;;;;13.68;5.85;;;;;;;8.64;100.00;102521.56;13014508;22;20006;-88
2022/09/21 08:14:11;;;;;;;12.00;5.18;;;;;;;9.24;100.00;102559.47;13015100;22;20018;-87
2022/09/21 08:19:19;;;;;;;13.20;4.20;;;;;;;9.21;100.00;102527.75;13018147;22;20007;-87
2022/09/21 08:24:20;;;;;;;9.30;2.97;;;;;;;8.45;100.00;102385.88;13039373;22;20320;-87
2022/09/21 08:29:20;;;;;;;8.98;2.28;;;;;;;10.35;100.00;102646.41;13027307;22;20098;-88
2022/09/21 08:34:22;;;;;;;6.32;2.00;;;;;;;10.41;100.00;102624.38;13038603;22;20026;-87
2022/09/21 08:39:23;;;;;;;8.70;1.50;;;;;;;10.40;100.00;102561.28;13039245;22;20486;-87
2022/09/21 08:44:27;;;;;;;5.85;1.30;;;;;;;10.85;100.00;102544.91;13015135;22;20052;-86
2022/09/21 08:49:27;;;;;;;11.38;1.75;;;;;;;11.33;100.00;102596.94;13043000;22;20021;-88
2022/09/21 08:54:33;;;;;;;4.88;1.10;;;;;;;11.98;100.00;102659.53;13050881;22;20511;-88
2022/09/21 08:59:34;;;;;;;5.40;1.00;;;;;;;11.97;100.00;102575.00;13027037;22;20522;-89
2022/09/21 09:04:40;;;;;;;5.25;1.00;;;;;;;13.13;100.00;102720.13;13002270;22;20080;-88
2022/09/21 09:10:05;;;;;;;7.32;0.93;;;;;;;12.31;100.00;102522.06;13066286;22;20081;-89
2022/09/21 09:15:32;;;;;;;7.63;1.02;;;;;;;13.81;100.00;102699.88;13043736;22;20007;-89
2022/09/21 09:20:41;;;;;;;2.90;0.70;;;;;;;13.28;100.00;102556.59;13043384;22;20137;-87
2022/09/21 09:25:42;;;;;;;9.88;1.00;;;;;;;12.91;100.00;102446.84;13023691;22;20007;-88
2022/09/21 09:30:42;;;;;;;3.72;0.93;;;;;;;13.62;100.00;102488.72;13049122;22;20078;-87
2022/09/21 09:35:59;;;;;;;4.25;0.77;;;;;;;14.07;100.00;102539.97;13038508;22;20466;-87
2022/09/21 09:41:58;;;;;;;3.42;0.80;;;;;;;13.42;100.00;102472.38;13042300;22;19999;-88
2022/09/21 09:47:16;;;;;;;12.70;1.08;;;;;;;15.18;100.00;102689.94;12746266;23;20016;-89
2022/09/21 09:52:17;;;;;;;8.38;0.85;;;;;;;14.63;100.00;102571.88;13010354;22;20038;-87
2022/09/21 09:57:23;;;;;;;7.22;1.67;;;;;;;14.52;100.00;102479.31;13014123;22;20050;-86
2022/09/21 10:02:27;;;;;;;4.90;0.80;;;;;;;15.54;100.00;102561.16;13039965;22;20022;-87
2022/09/21 10:07:39;;;;;;;8.10;1.20;;;;;;;15.40;100.00;102501.47;13038981;22;20023;-88
2022/09/21 10:12:39;;;;;;;6.22;0.77;;;;;;;16.18;100.00;102571.25;13038677;22;20068;-87
2022/09/21 10:17:40;;;;;;;2.42;0.60;;;;;;;15.58;100.00;102394.94;13012845;22;20057;-89
2022/09/21 10:22:45;;;;;;;10.93;1.90;;;;;;;15.85;93.61;102388.75;13012415;22;20038;-90
2022/09/21 10:27:49;;;;;;;5.93;0.82;;;;;;;16.18;94.09;102432.31;13038406;22;20018;-89
2022/09/21 10:32:53;;;;;;;7.43;0.93;;;;;;;16.29;90.19;102473.09;13015749;22;20022;-89
2022/09/21 10:38:10;;;;;;;7.07;2.20;;;;;;;16.36;89.99;102510.97;13013866;22;20015;-86
2022/09/21 10:43:24;;;;;;;;;;;;;;;17.47;89.74;102636.16;13044033;22;20010;-83
2022/09/21 10:48:25;;;;;;;5.43;0.80;;;;;;;16.68;91.20;102477.81;13027555;22;19982;-90
2022/09/21 10:53:33;;;;;;;9.23;1.73;;;;;;;16.71;87.69;102386.38;13043058;22;20038;-90
2022/09/21 10:58:34;;;;;;;4.10;1.38;;;;;;;17.83;88.97;102514.03;13042855;22;20003;-88
2022/09/21 11:03:34;;;;;;;3.67;0.80;;;;;;;18.65;84.33;102634.66;13015732;22;20404;-87
2022/09/21 11:08:51;;;;;;;5.93;0.90;;;;;;;17.54;82.48;102494.78;13066332;22;20035;-87
2022/09/21 11:14:17;;;;;;;8.00;1.67;;;;;;;17.07;80.11;102411.03;12985498;22;20039;-88
2022/09/21 11:19:42;;;;;;;7.23;2.50;;;;;;;17.38;80.29;102498.50;13045419;22;20437;-88
2022/09/21 11:25:22;;;;;;;9.48;3.67;;;;;;;18.70;79.63;102620.75;13070497;22;20034;-89
2022/09/21 11:30:28;;;;;;;9.20;4.60;;;;;;;18.29;75.26;102555.44;13040183;22;20010;-87
2022/09/21 11:35:41;;;;;;;3.92;0.52;;;;;;;19.10;72.22;102594.28;13015038;22;20038;-87
2022/09/21 11:40:52;;;;;;;7.43;1.02;;;;;;;18.45;75.45;102520.16;13040410;22;20018;-91
2022/09/21 11:46:04;;;;;;;6.65;0.47;;;;;;;19.17;73.15;102598.78;13069248;22;20010;-89
2022/09/21 11:51:17;;;;;;;5.85;0.90;;;;;;;17.55;75.01;102428.81;13067881;22;20425;-87
2022/09/21 11:56:46;;;;;;;7.05;1.00;;;;;;;18.87;70.34;102460.72;13013331;22;20015;-84
2022/09/21 12:02:24;;;;;;;6.55;1.02;;;;;;;21.10;68.63;102574.19;12987714;22;20015;-91
2022/09/21 12:07:33;;;;;;;4.43;0.80;;;;;;;21.45;65.58;102463.16;12871594;22;20419;-89
2022/09/21 12:13:31;;;;;;;2.97;0.77;;;;;;;22.94;59.11;102533.69;12849570;22;20497;-92
2022/09/21 12:18:48;;;;;;;4.88;0.70;;;;;;;23.48;58.37;102522.34;12730127;22;20012;-86
2022/09/21 12:23:55;;;;;;;4.38;0.60;;;;;;;23.63;54.36;102510.09;12982185;22;20010;-83
2022/09/21 12:29:20;;;;;;;3.65;0.90;;;;;;;24.04;55.14;102529.16;12958401;22;20065;-96
2022/09/21 12:41:00;;;;;;;;;;;;;;;;;;;;;
2022/09/21 12:59:54;;;;;;;;;;;;;;;;;;;;;
2022/09/21 13:05:53;;;;;;;;;;;;;;;;;;;;;
2022/09/21 13:11:26;;;;;;;2.72;0.88;;;;;;;25.65;50.75;102484.31;12325471;23;20028;-91
2022/09/21 13:17:40;;;;;;;3.75;0.95;;;;;;;23.73;46.52;102223.94;12352920;23;20093;-92
2022/09/21 13:23:05;;;;;;;3.38;0.60;;;;;;;21.48;52.11;102267.28;12215886;23;20062;-91
2022/09/21 13:28:40;;;;;;;6.20;0.80;;;;;;;23.13;55.82;102514.13;12490049;23;20014;-90
2022/09/21 13:40:13;;;;;;;4.93;0.60;;;;;;;24.46;47.66;102474.66;12522893;23;20018;-90
2022/09/21 13:45:34;;;;;;;;;;;;;;;;;;;;;
2022/09/21 13:51:05;;;;;;;1.75;0.45;;;;;;;24.29;49.35;102320.47;12669335;22;20089;-95
2022/09/21 13:57:48;;;;;;;;;;;;;;;;;;;;;
2022/09/21 14:10:34;;;;;;;2.28;0.57;;;;;;;24.20;51.05;102473.47;12132515;24;20025;-94
2022/09/21 14:27:37;;;;;;;2.45;0.82;;;;;;;24.04;54.29;102482.19;12698732;22;20022;-92
2022/09/21 14:33:14;;;;;;;3.33;0.60;;;;;;;24.02;49.35;102262.22;12935707;22;20021;-88
2022/09/21 14:38:33;;;;;;;5.35;0.50;;;;;;;22.69;48.00;102318.63;12899557;22;20034;-90
2022/09/21 14:44:09;;;;;;;4.63;0.65;;;;;;;19.86;54.30;102257.56;12837374;22;20006;-92
2022/09/21 14:55:33;;;;;;;3.45;0.95;;;;;;;19.28;65.24;102422.63;12636806;22;20453;-90
2022/09/21 15:00:44;;;;;;;7.20;0.80;;;;;;;19.52;64.15;102302.84;13002626;22;20074;-92
2022/09/21 15:12:08;;;;;;;3.47;0.60;;;;;;;20.79;59.89;102399.91;12704427;23;20043;-91
2022/09/21 15:17:38;;;;;;;6.03;0.70;;;;;;;19.45;60.78;102285.56;12759942;22;20418;-88
2022/09/21 15:22:42;;;;;;;3.65;0.52;;;;;;;19.08;61.51;102260.66;12811419;22;20451;-88
2022/09/21 15:27:45;;;;;;;5.43;0.50;;;;;;;20.16;58.69;102309.75;12902162;22;20029;-88
2022/09/21 15:32:47;;;;;;;5.70;0.73;;;;;;;21.37;51.76;102248.84;12944686;22;20022;-89
2022/09/21 15:37:50;;;;;;;4.22;0.50;;;;;;;21.03;51.01;102115.31;12885363;22;20385;-87
2022/09/21 15:43:15;;;;;;;4.80;0.70;;;;;;;20.29;53.47;102162.88;12941041;22;20003;-88
2022/09/21 15:48:17;;;;;;;2.53;0.50;;;;;;;19.43;59.01;102272.97;12903990;22;20495;-88
2022/09/21 15:53:39;;;;;;;4.40;0.60;;;;;;;18.02;62.98;102255.34;12787103;22;20017;-88
2022/09/21 15:58:40;;;;;;;1.67;0.60;;;;;;;18.18;61.40;102443.00;12838119;22;20090;-88
2022/09/21 16:03:41;;;;;;;7.85;0.68;;;;;;;17.21;68.00;102381.69;12910507;22;20006;-90
2022/09/21 16:08:44;;;;;;;7.20;1.13;;;;;;;16.03;67.97;102284.88;12840744;22;20033;-90
2022/09/21 16:19:05;;;;;;;5.03;0.50;;;;;;;15.72;73.96;102351.06;13020261;22;20002;-87
2022/09/21 16:24:11;;;;;;;3.97;0.57;;;;;;;15.44;76.52;102369.44;13008653;22;20011;-91
2022/09/21 16:29:24;;;;;;;4.00;1.10;;;;;;;14.90;83.67;102339.34;13065893;22;20003;-92
2022/09/21 16:34:36;;;;;;;4.72;0.40;;;;;;;14.27;91.28;102329.97;13034450;22;20015;-92
2022/09/21 16:39:36;;;;;;;1.17;0.35;;;;;;;14.31;100.00;102375.47;13062668;22;20003;-91
2022/09/21 16:44:43;;;;;;;3.83;0.50;;;;;;;12.55;100.00;102163.16;13030672;22;20003;-91
2022/09/21 16:49:43;;;;;;;7.20;0.70;;;;;;;12.88;100.00;102278.72;13066186;22;20010;-91
2022/09/21 16:54:44;;;;;;;4.80;0.50;;;;;;;13.39;100.00;102392.59;13027797;22;20337;-91
2022/09/21 16:59:45;;;;;;;3.90;1.10;;;;;;;12.46;100.00;102280.56;12923851;22;20006;-91
2022/09/21 17:04:46;;;;;;;2.33;0.60;;;;;;;12.04;100.00;102245.41;13006129;22;20013;-93
2022/09/21 17:09:47;;;;;;;2.92;0.45;;;;;;;11.49;100.00;102210.34;12985996;22;20010;-93
2022/09/21 17:14:49;;;;;;;4.88;0.93;;;;;;;11.33;100.00;102224.72;13068449;22;20026;-91
2022/09/21 17:19:50;;;;;;;4.13;0.65;;;;;;;12.91;100.00;102548.28;12913525;22;20345;-93
2022/09/21 17:25:00;;;;;;;4.43;0.73;;;;;;;11.67;100.00;102349.34;12949613;22;20022;-89
2022/09/21 17:30:02;;;;;;;4.82;0.65;;;;;;;10.88;100.00;102283.56;13014263;22;20030;-91
2022/09/21 17:35:18;;;;;;;4.93;0.90;;;;;;;11.90;100.00;102439.81;12909207;22;20054;-87
2022/09/21 17:40:22;;;;;;;5.82;0.93;;;;;;;11.60;100.00;102473.56;12965231;22;20070;-87
2022/09/21 17:45:34;;;;;;;5.32;0.73;;;;;;;10.24;100.00;102241.31;12923551;22;20006;-87
2022/09/21 17:50:35;;;;;;;9.10;1.15;;;;;;;11.35;100.00;102487.28;12990137;22;20014;-89
2022/09/21 17:55:37;;;;;;;4.80;1.30;;;;;;;11.09;100.00;102466.19;13018192;22;20014;-91
2022/09/21 18:00:44;;;;;;;6.80;1.25;;;;;;;10.95;100.00;102473.66;13029323;22;20010;-91
2022/09/21 18:05:45;;;;;;;6.10;0.80;;;;;;;10.78;100.00;102484.31;13027366;22;20047;-90
2022/09/21 18:11:05;;;;;;;5.60;1.10;;;;;;;9.76;100.00;102331.63;13021989;22;20425;-90
2022/09/21 18:16:26;;;;;;;3.55;0.82;;;;;;;10.92;100.00;102525.63;13006233;22;20071;-92
2022/09/21 18:21:32;;;;;;;4.00;0.98;;;;;;;9.33;100.00;102319.16;13011159;22;20011;-92
2022/09/21 18:26:33;;;;;;;6.43;1.37;;;;;;;9.43;100.00;102388.28;12971482;22;20023;-90
2022/09/21 18:31:40;;;;;;;11.13;1.77;;;;;;;10.33;100.00;102491.59;12954879;22;20018;-92
2022/09/21 18:36:49;;;;;;;;;;;;;;;10.46;100.00;102535.66;12974173;22;20520;-90
2022/09/21 18:42:08;;;;;;;7.13;2.17;;;;;;;10.40;100.00;102536.50;13021350;22;20323;-89
2022/09/21 18:47:24;;;;;;;7.72;1.70;;;;;;;10.29;100.00;102558.09;13037114;22;20003;-91
2022/09/21 18:53:07;;;;;;;4.57;1.50;;;;;;;10.24;100.00;102537.75;13022171;22;20015;-89
2022/09/21 18:58:09;;;;;;;4.80;1.42;;;;;;;8.74;100.00;102307.00;12952596;22;20010;-88
2022/09/21 19:03:13;;;;;;;4.35;1.70;;;;;;;8.58;100.00;102318.34;12998657;22;20060;-89
2022/09/21 19:08:29;;;;;;;2.97;1.60;;;;;;;9.12;100.00;102435.59;12994068;22;20022;-87
2022/09/21 19:13:38;;;;;;;7.25;1.65;;;;;;;8.30;100.00;102302.78;12989748;22;20015;-88
2022/09/21 19:19:19;;;;;;;5.05;2.03;;;;;;;9.07;100.00;102443.59;12993686;22;20023;-87
2022/09/21 19:24:34;;;;;;;8.85;1.80;;;;;;;8.33;100.00;102315.25;12990472;22;20498;-87
2022/09/21 19:29:53;;;;;;;7.25;2.40;;;;;;;8.94;100.00;102433.41;12988018;22;20459;-87
2022/09/21 19:34:54;;;;;;;8.18;2.30;;;;;;;7.74;100.00;102290.03;13062178;22;20014;-88
2022/09/21 19:39:56;;;;;;;4.78;2.22;;;;;;;9.00;100.00;102482.03;12938165;22;20087;-87
2022/09/21 19:45:12;;;;;;;4.75;3.67;;;;;;;8.47;100.00;102427.69;12915738;22;20030;-90
2022/09/21 19:50:16;;;;;;;6.50;2.20;;;;;;;8.00;100.00;102360.66;13002560;22;20066;-88
2022/09/21 20:00:38;;;;;;;10.95;3.05;;;;;;;7.48;100.00;102301.66;12980881;22;20040;-88
2022/09/21 20:05:53;;;;;;;6.68;2.55;;;;;;;8.75;100.00;102505.56;12893267;22;20027;-88
2022/09/21 20:11:07;;;;;;;6.30;3.10;;;;;;;8.03;100.00;102381.34;13044974;22;19998;-88
2022/09/21 20:16:28;;;;;;;8.27;3.80;;;;;;;6.77;100.00;102236.78;12854164;22;20015;-88
2022/09/21 20:21:38;;;;;;;8.35;4.45;;;;;;;7.63;100.00;102351.75;12946096;22;20421;-88
2022/09/21 20:26:39;;;;;;;20.00;10.63;;;;;;;8.08;100.00;102488.56;12987268;22;20097;-88
2022/09/21 20:31:40;;;;;;;18.48;9.45;;;;;;;7.51;100.00;102404.56;12969914;22;20460;-88
2022/09/21 20:36:41;;;;;;;14.00;7.75;;;;;;;6.66;100.00;102238.16;12977753;22;20009;-87
2022/09/21 20:41:41;;;;;;;14.45;6.35;;;;;;;7.30;100.00;102381.59;13030912;22;20460;-88
2022/09/21 20:46:42;;;;;;;10.60;6.22;;;;;;;7.32;100.00;102357.59;12943851;22;20007;-88
2022/09/21 20:51:45;;;;;;;10.73;5.70;;;;;;;8.68;100.00;102594.25;12983118;22;21043;-88
2022/09/21 20:56:46;;;;;;;11.88;5.70;;;;;;;7.73;100.00;102443.75;12995631;22;20064;-87
2022/09/21 21:01:47;;;;;;;12.38;5.28;;;;;;;7.80;100.00;102459.22;12990076;22;20077;-89
2022/09/21 21:06:48;;;;;;;11.75;4.78;;;;;;;7.02;100.00;102354.97;12976948;22;19999;-87
2022/09/21 21:11:50;;;;;;;14.90;6.35;;;;;;;8.59;100.00;102584.44;12977932;22;20015;-88
2022/09/21 21:16:51;;;;;;;10.85;4.88;;;;;;;8.51;100.00;102575.50;12979295;22;20137;-87
2022/09/21 21:21:54;;;;;;;8.52;4.47;;;;;;;7.70;100.00;102488.88;13012622;22;20007;-88
2022/09/21 21:26:56;;;;;;;10.38;4.05;;;;;;;6.54;100.00;102272.53;12987710;22;20019;-87
2022/09/21 21:31:58;;;;;;;12.13;4.75;;;;;;;8.23;100.00;102617.47;12970266;22;20019;-89
2022/09/21 21:36:59;;;;;;;10.90;4.45;;;;;;;7.73;100.00;102524.13;12963931;22;20007;-88
2022/09/21 21:42:03;;;;;;;8.18;3.67;;;;;;;6.90;100.00;102388.53;12983301;22;19995;-90
2022/09/21 21:47:14;;;;;;;8.85;3.92;;;;;;;5.97;100.00;102255.00;12962412;22;20089;-91
2022/09/21 21:52:15;;;;;;;8.27;3.65;;;;;;;6.29;100.00;102290.34;12814008;22;20075;-91
2022/09/21 21:57:24;;;;;;;7.07;4.18;;;;;;;7.06;100.00;102441.16;12934797;22;20007;-90
2022/09/21 22:02:28;;;;;;;12.68;6.05;;;;;;;5.81;100.00;102212.31;12945067;22;20003;-91
2022/09/21 22:07:32;;;;;;;20.50;8.45;;;;;;;7.12;100.00;102444.19;12816482;22;20011;-90
2022/09/21 22:12:36;;;;;;;15.40;7.37;;;;;;;6.78;100.00;102416.41;12978538;22;20342;-92
2022/09/21 22:17:37;;;;;;;11.82;8.07;;;;;;;6.19;100.00;102329.75;12882995;22;20283;-92
2022/09/21 22:22:39;;;;;;;12.10;7.22;;;;;;;6.42;100.00;102332.38;12901143;22;20021;-93
2022/09/21 22:27:40;;;;;;;12.15;6.72;;;;;;;7.74;100.00;102568.84;12963163;22;20026;-90
2022/09/21 22:32:41;;;;;;;13.85;6.63;;;;;;;6.47;100.00;102359.19;13000389;22;20022;-90
2022/09/21 22:37:53;;;;;;;11.38;6.40;;;;;;;6.59;100.00;102434.25;12930722;22;20466;-91
2022/09/21 22:42:56;;;;;;;13.02;6.38;;;;;;;6.83;100.00;102456.91;12967560;22;20011;-90
2022/09/21 22:48:02;;;;;;;10.75;6.20;;;;;;;6.76;100.00;102447.72;12895017;22;20003;-91
2022/09/21 22:53:03;;;;;;;13.40;6.95;;;;;;;6.99;100.00;102488.69;12895091;22;20024;-89
2022/09/21 22:58:26;;;;;;;13.10;6.45;;;;;;;6.94;100.00;102518.53;12908891;22;20003;-89
2022/09/21 23:03:27;;;;;;;11.80;6.35;;;;;;;6.87;100.00;102545.81;12994247;22;20011;-88
2022/09/21 23:08:31;;;;;;;13.68;7.13;;;;;;;5.68;100.00;102345.16;12916958;22;20078;-90
2022/09/21 23:13:38;;;;;;;10.30;7.05;;;;;;;7.20;100.00;102548.16;12975799;22;20015;-88
2022/09/21 23:18:39;;;;;;;;;;;;;;;7.16;100.00;102549.59;12977836;22;20440;-90
2022/09/21 23:23:42;;;;;;;13.70;7.43;;;;;;;5.39;100.00;102317.56;12978189;22;19905;-88
2022/09/21 23:28:53;;;;;;;11.63;7.60;;;;;;;6.58;100.00;102494.66;12978143;22;20027;-88
2022/09/21 23:33:57;;;;;;;9.10;7.13;;;;;;;5.61;100.00;102334.97;12896321;22;20018;-90
2022/09/21 23:38:58;;;;;;;11.82;6.97;;;;;;;6.91;100.00;102538.09;12968349;22;20010;-91
2022/09/21 23:44:02;;;;;;;12.70;7.32;;;;;;;5.27;100.00;102291.75;12958795;22;20007;-87
2022/09/21 23:49:06;;;;;;;12.10;7.65;;;;;;;4.62;100.00;102201.19;12921043;22;20018;-88
2022/09/21 23:54:10;;;;;;;17.17;7.78;;;;;;;4.82;100.00;102255.28;12967353;22;20010;-89
2022/09/21 23:59:13;;;;;;;16.85;10.00;;;;;;;6.70;100.00;102542.41;12973686;22;22264;-88
